sensor_id;sensor_type;location;lat;lon;timestamp;temperature;humidity
15906;DHT22;8051;50.820;4.884;2022-10-15T00:01:18;14.10;99.90
15906;DHT22;8051;50.820;4.884;2022-10-15T00:03:45;14.10;99.90
15906;DHT22;8051;50.820;4.884;2022-10-15T00:06:14;14.10;99.90
15906;DHT22;8051;50.820;4.884;2022-10-15T00:08:43;14.10;99.90
15906;DHT22;8051;50.820;4.884;2022-10-15T00:11:12;14.10;99.90
15906;DHT22;8051;50.820;4.884;2022-10-15T00:13:39;14.10;99.90
15906;DHT22;8051;50.820;4.884;2022-10-15T00:16:07;14.10;99.90
15906;DHT22;8051;50.820;4.884;2022-10-15T00:18:34;14.10;99.90
15906;DHT22;8051;50.820;4.884;2022-10-15T00:21:05;14.00;99.90
15906;DHT22;8051;50.820;4.884;2022-10-15T00:23:32;14.00;99.90
15906;DHT22;8051;50.820;4.884;2022-10-15T00:26:05;14.00;99.90
15906;DHT22;8051;50.820;4.884;2022-10-15T00:28:33;14.00;99.90
15906;DHT22;8051;50.820;4.884;2022-10-15T00:31:02;14.00;99.90
15906;DHT22;8051;50.820;4.884;2022-10-15T00:33:29;14.00;99.90
15906;DHT22;8051;50.820;4.884;2022-10-15T00:36:00;14.00;99.90
15906;DHT22;8051;50.820;4.884;2022-10-15T00:38:28;14.00;99.90
15906;DHT22;8051;50.820;4.884;2022-10-15T00:40:55;14.10;99.90
15906;DHT22;8051;50.820;4.884;2022-10-15T00:43:41;14.10;99.90
15906;DHT22;8051;50.820;4.884;2022-10-15T00:46:16;14.10;99.90
15906;DHT22;8051;50.820;4.884;2022-10-15T00:48:45;14.10;99.90
15906;DHT22;8051;50.820;4.884;2022-10-15T00:51:14;14.00;99.90
15906;DHT22;8051;50.820;4.884;2022-10-15T00:53:42;14.00;99.90
15906;DHT22;8051;50.820;4.884;2022-10-15T00:56:11;13.90;99.90
15906;DHT22;8051;50.820;4.884;2022-10-15T00:58:40;13.80;99.90
15906;DHT22;8051;50.820;4.884;2022-10-15T01:01:07;13.80;99.90
15906;DHT22;8051;50.820;4.884;2022-10-15T01:03:34;13.70;99.90
15906;DHT22;8051;50.820;4.884;2022-10-15T01:06:02;13.80;99.90
15906;DHT22;8051;50.820;4.884;2022-10-15T01:08:29;13.80;99.90
15906;DHT22;8051;50.820;4.884;2022-10-15T01:11:05;13.80;99.90
15906;DHT22;8051;50.820;4.884;2022-10-15T01:13:36;13.80;99.90
15906;DHT22;8051;50.820;4.884;2022-10-15T01:16:12;13.90;99.90
15906;DHT22;8051;50.820;4.884;2022-10-15T01:18:45;13.90;99.90
15906;DHT22;8051;50.820;4.884;2022-10-15T01:21:17;13.90;99.90
15906;DHT22;8051;50.820;4.884;2022-10-15T01:27:06;13.90;99.90
15906;DHT22;8051;50.820;4.884;2022-10-15T01:29:52;13.90;99.90
15906;DHT22;8051;50.820;4.884;2022-10-15T01:32:24;13.90;99.90
15906;DHT22;8051;50.820;4.884;2022-10-15T01:34:55;13.90;99.90
15906;DHT22;8051;50.820;4.884;2022-10-15T01:37:28;13.80;99.90
15906;DHT22;8051;50.820;4.884;2022-10-15T01:40:03;13.90;99.90
15906;DHT22;8051;50.820;4.884;2022-10-15T01:42:37;13.90;99.90
15906;DHT22;8051;50.820;4.884;2022-10-15T01:45:09;13.90;99.90
15906;DHT22;8051;50.820;4.884;2022-10-15T01:47:43;13.90;99.90
15906;DHT22;8051;50.820;4.884;2022-10-15T01:50:14;14.00;99.90
15906;DHT22;8051;50.820;4.884;2022-10-15T01:52:42;14.00;99.90
15906;DHT22;8051;50.820;4.884;2022-10-15T01:55:13;14.00;99.90
15906;DHT22;8051;50.820;4.884;2022-10-15T01:57:43;14.00;99.90
15906;DHT22;8051;50.820;4.884;2022-10-15T02:00:11;14.00;99.90
15906;DHT22;8051;50.820;4.884;2022-10-15T02:02:39;14.00;99.90
15906;DHT22;8051;50.820;4.884;2022-10-15T02:05:11;14.00;99.90
15906;DHT22;8051;50.820;4.884;2022-10-15T02:07:45;14.00;99.90
15906;DHT22;8051;50.820;4.884;2022-10-15T02:10:18;14.00;99.90
15906;DHT22;8051;50.820;4.884;2022-10-15T02:12:53;14.00;99.90
15906;DHT22;8051;50.820;4.884;2022-10-15T02:15:33;14.00;99.90
15906;DHT22;8051;50.820;4.884;2022-10-15T02:18:04;14.00;99.90
15906;DHT22;8051;50.820;4.884;2022-10-15T02:20:39;14.00;99.90
15906;DHT22;8051;50.820;4.884;2022-10-15T02:23:11;14.10;99.90
15906;DHT22;8051;50.820;4.884;2022-10-15T02:25:39;14.10;99.90
15906;DHT22;8051;50.820;4.884;2022-10-15T02:28:09;14.00;99.90
15906;DHT22;8051;50.820;4.884;2022-10-15T02:30:38;14.00;99.90
15906;DHT22;8051;50.820;4.884;2022-10-15T02:33:08;14.00;99.90
15906;DHT22;8051;50.820;4.884;2022-10-15T02:35:36;13.90;99.90
15906;DHT22;8051;50.820;4.884;2022-10-15T02:38:06;13.90;99.90
15906;DHT22;8051;50.820;4.884;2022-10-15T02:40:33;13.80;99.90
15906;DHT22;8051;50.820;4.884;2022-10-15T02:43:04;13.80;99.90
15906;DHT22;8051;50.820;4.884;2022-10-15T02:45:31;13.70;99.90
15906;DHT22;8051;50.820;4.884;2022-10-15T02:47:58;13.70;99.90
15906;DHT22;8051;50.820;4.884;2022-10-15T02:50:26;13.70;99.90
15906;DHT22;8051;50.820;4.884;2022-10-15T02:52:53;13.70;99.90
15906;DHT22;8051;50.820;4.884;2022-10-15T02:55:20;13.80;99.90
15906;DHT22;8051;50.820;4.884;2022-10-15T02:57:47;13.70;99.90
15906;DHT22;8051;50.820;4.884;2022-10-15T03:00:14;13.70;99.90
15906;DHT22;8051;50.820;4.884;2022-10-15T03:02:41;13.60;99.90
15906;DHT22;8051;50.820;4.884;2022-10-15T03:05:08;13.60;99.90
15906;DHT22;8051;50.820;4.884;2022-10-15T03:07:36;13.60;99.90
15906;DHT22;8051;50.820;4.884;2022-10-15T03:10:04;13.60;99.90
15906;DHT22;8051;50.820;4.884;2022-10-15T03:12:32;13.60;99.90
15906;DHT22;8051;50.820;4.884;2022-10-15T03:14:59;13.60;99.90
15906;DHT22;8051;50.820;4.884;2022-10-15T03:17:26;13.60;99.90
15906;DHT22;8051;50.820;4.884;2022-10-15T03:19:53;13.50;99.90
15906;DHT22;8051;50.820;4.884;2022-10-15T03:22:19;13.50;99.90
15906;DHT22;8051;50.820;4.884;2022-10-15T03:24:48;13.40;99.90
15906;DHT22;8051;50.820;4.884;2022-10-15T03:27:14;13.30;99.90
15906;DHT22;8051;50.820;4.884;2022-10-15T03:29:41;13.20;99.90
15906;DHT22;8051;50.820;4.884;2022-10-15T03:32:08;13.20;99.90
15906;DHT22;8051;50.820;4.884;2022-10-15T03:34:35;13.10;99.90
15906;DHT22;8051;50.820;4.884;2022-10-15T03:37:02;13.00;99.90
15906;DHT22;8051;50.820;4.884;2022-10-15T03:39:29;12.90;99.90
15906;DHT22;8051;50.820;4.884;2022-10-15T03:41:57;12.80;99.90
15906;DHT22;8051;50.820;4.884;2022-10-15T03:44:24;12.80;99.90
15906;DHT22;8051;50.820;4.884;2022-10-15T03:46:51;12.70;99.90
15906;DHT22;8051;50.820;4.884;2022-10-15T03:49:18;12.70;99.90
15906;DHT22;8051;50.820;4.884;2022-10-15T03:51:45;12.70;99.90
15906;DHT22;8051;50.820;4.884;2022-10-15T03:54:11;12.70;99.90
15906;DHT22;8051;50.820;4.884;2022-10-15T03:56:38;12.70;99.90
15906;DHT22;8051;50.820;4.884;2022-10-15T03:59:06;12.70;99.90
15906;DHT22;8051;50.820;4.884;2022-10-15T04:01:33;12.80;99.90
15906;DHT22;8051;50.820;4.884;2022-10-15T04:04:00;12.90;99.90
15906;DHT22;8051;50.820;4.884;2022-10-15T04:06:27;12.90;99.90
15906;DHT22;8051;50.820;4.884;2022-10-15T04:08:54;13.00;99.90
15906;DHT22;8051;50.820;4.884;2022-10-15T04:11:21;13.10;99.90
15906;DHT22;8051;50.820;4.884;2022-10-15T04:13:48;13.10;99.90
15906;DHT22;8051;50.820;4.884;2022-10-15T04:16:17;13.10;99.90
15906;DHT22;8051;50.820;4.884;2022-10-15T04:18:43;13.10;99.90
15906;DHT22;8051;50.820;4.884;2022-10-15T04:21:10;13.00;99.90
15906;DHT22;8051;50.820;4.884;2022-10-15T04:23:37;12.90;99.90
15906;DHT22;8051;50.820;4.884;2022-10-15T04:26:04;12.80;99.90
15906;DHT22;8051;50.820;4.884;2022-10-15T04:28:31;12.70;99.90
15906;DHT22;8051;50.820;4.884;2022-10-15T04:30:59;12.60;99.90
15906;DHT22;8051;50.820;4.884;2022-10-15T04:33:28;12.50;99.90
15906;DHT22;8051;50.820;4.884;2022-10-15T04:35:59;12.50;99.90
15906;DHT22;8051;50.820;4.884;2022-10-15T04:38:26;12.40;99.90
15906;DHT22;8051;50.820;4.884;2022-10-15T04:41:01;12.40;99.90
15906;DHT22;8051;50.820;4.884;2022-10-15T04:43:29;12.30;99.90
15906;DHT22;8051;50.820;4.884;2022-10-15T04:45:57;12.30;99.90
15906;DHT22;8051;50.820;4.884;2022-10-15T04:48:24;12.20;99.90
15906;DHT22;8051;50.820;4.884;2022-10-15T04:50:52;12.10;99.90
15906;DHT22;8051;50.820;4.884;2022-10-15T04:53:19;12.10;99.90
15906;DHT22;8051;50.820;4.884;2022-10-15T04:55:46;12.00;99.90
15906;DHT22;8051;50.820;4.884;2022-10-15T04:58:13;12.00;99.90
15906;DHT22;8051;50.820;4.884;2022-10-15T05:00:40;12.00;99.90
15906;DHT22;8051;50.820;4.884;2022-10-15T05:03:07;12.00;99.90
15906;DHT22;8051;50.820;4.884;2022-10-15T05:05:33;12.00;99.90
15906;DHT22;8051;50.820;4.884;2022-10-15T05:08:02;11.90;99.90
15906;DHT22;8051;50.820;4.884;2022-10-15T05:10:30;11.90;99.90
15906;DHT22;8051;50.820;4.884;2022-10-15T05:12:57;12.00;99.90
15906;DHT22;8051;50.820;4.884;2022-10-15T05:15:24;12.00;99.90
15906;DHT22;8051;50.820;4.884;2022-10-15T05:17:51;12.00;99.90
15906;DHT22;8051;50.820;4.884;2022-10-15T05:20:18;12.10;99.90
15906;DHT22;8051;50.820;4.884;2022-10-15T05:22:45;12.10;99.90
15906;DHT22;8051;50.820;4.884;2022-10-15T05:25:14;12.20;99.90
15906;DHT22;8051;50.820;4.884;2022-10-15T05:27:41;12.30;99.90
15906;DHT22;8051;50.820;4.884;2022-10-15T05:30:08;12.30;99.90
15906;DHT22;8051;50.820;4.884;2022-10-15T05:32:35;12.40;99.90
15906;DHT22;8051;50.820;4.884;2022-10-15T05:35:03;12.40;99.90
15906;DHT22;8051;50.820;4.884;2022-10-15T05:37:30;12.50;99.90
15906;DHT22;8051;50.820;4.884;2022-10-15T05:39:57;12.60;99.90
15906;DHT22;8051;50.820;4.884;2022-10-15T05:42:25;12.60;99.90
15906;DHT22;8051;50.820;4.884;2022-10-15T05:44:52;12.70;99.90
15906;DHT22;8051;50.820;4.884;2022-10-15T05:47:19;12.70;99.90
15906;DHT22;8051;50.820;4.884;2022-10-15T05:49:45;12.70;99.90
15906;DHT22;8051;50.820;4.884;2022-10-15T05:52:12;12.80;99.90
15906;DHT22;8051;50.820;4.884;2022-10-15T05:54:40;12.70;99.90
15906;DHT22;8051;50.820;4.884;2022-10-15T05:57:07;12.80;99.90
15906;DHT22;8051;50.820;4.884;2022-10-15T05:59:35;12.80;99.90
15906;DHT22;8051;50.820;4.884;2022-10-15T06:02:02;12.90;99.90
15906;DHT22;8051;50.820;4.884;2022-10-15T06:04:29;13.00;99.90
15906;DHT22;8051;50.820;4.884;2022-10-15T06:06:56;13.00;99.90
15906;DHT22;8051;50.820;4.884;2022-10-15T06:09:23;13.00;99.90
15906;DHT22;8051;50.820;4.884;2022-10-15T06:11:51;13.10;99.90
15906;DHT22;8051;50.820;4.884;2022-10-15T06:14:18;13.10;99.90
15906;DHT22;8051;50.820;4.884;2022-10-15T06:16:47;13.10;99.90
15906;DHT22;8051;50.820;4.884;2022-10-15T06:19:15;13.20;99.90
15906;DHT22;8051;50.820;4.884;2022-10-15T06:21:42;13.10;99.90
15906;DHT22;8051;50.820;4.884;2022-10-15T06:24:09;13.20;99.90
15906;DHT22;8051;50.820;4.884;2022-10-15T06:26:36;13.20;99.90
15906;DHT22;8051;50.820;4.884;2022-10-15T06:29:03;13.20;99.90
15906;DHT22;8051;50.820;4.884;2022-10-15T06:31:30;13.30;99.90
15906;DHT22;8051;50.820;4.884;2022-10-15T06:33:58;13.30;99.90
15906;DHT22;8051;50.820;4.884;2022-10-15T06:36:25;13.40;99.90
15906;DHT22;8051;50.820;4.884;2022-10-15T06:38:52;13.40;99.90
15906;DHT22;8051;50.820;4.884;2022-10-15T06:41:19;13.40;99.90
15906;DHT22;8051;50.820;4.884;2022-10-15T06:43:48;13.50;99.90
15906;DHT22;8051;50.820;4.884;2022-10-15T06:46:15;13.60;99.90
15906;DHT22;8051;50.820;4.884;2022-10-15T06:48:42;13.60;99.90
15906;DHT22;8051;50.820;4.884;2022-10-15T06:51:10;13.60;99.90
15906;DHT22;8051;50.820;4.884;2022-10-15T06:53:38;13.60;99.90
15906;DHT22;8051;50.820;4.884;2022-10-15T06:56:06;13.60;99.90
15906;DHT22;8051;50.820;4.884;2022-10-15T06:58:33;13.60;99.90
15906;DHT22;8051;50.820;4.884;2022-10-15T07:01:00;13.60;99.90
15906;DHT22;8051;50.820;4.884;2022-10-15T07:03:27;13.70;99.90
15906;DHT22;8051;50.820;4.884;2022-10-15T07:06:00;13.80;99.90
15906;DHT22;8051;50.820;4.884;2022-10-15T07:08:29;13.80;99.90
15906;DHT22;8051;50.820;4.884;2022-10-15T07:10:56;13.90;99.90
15906;DHT22;8051;50.820;4.884;2022-10-15T07:13:23;14.10;99.90
15906;DHT22;8051;50.820;4.884;2022-10-15T07:15:50;14.10;99.90
15906;DHT22;8051;50.820;4.884;2022-10-15T07:18:20;14.20;99.90
15906;DHT22;8051;50.820;4.884;2022-10-15T07:20:47;14.20;99.90
15906;DHT22;8051;50.820;4.884;2022-10-15T07:23:14;14.30;99.90
15906;DHT22;8051;50.820;4.884;2022-10-15T07:25:42;14.40;99.90
15906;DHT22;8051;50.820;4.884;2022-10-15T07:28:09;14.50;99.90
15906;DHT22;8051;50.820;4.884;2022-10-15T07:30:36;14.50;99.90
15906;DHT22;8051;50.820;4.884;2022-10-15T07:33:03;14.50;99.90
15906;DHT22;8051;50.820;4.884;2022-10-15T07:35:30;14.40;99.90
15906;DHT22;8051;50.820;4.884;2022-10-15T07:37:59;14.50;99.90
15906;DHT22;8051;50.820;4.884;2022-10-15T07:40:26;14.50;99.90
15906;DHT22;8051;50.820;4.884;2022-10-15T07:42:56;14.50;99.90
15906;DHT22;8051;50.820;4.884;2022-10-15T07:45:23;14.50;99.90
15906;DHT22;8051;50.820;4.884;2022-10-15T07:47:51;14.60;99.90
15906;DHT22;8051;50.820;4.884;2022-10-15T07:50:18;14.70;99.90
15906;DHT22;8051;50.820;4.884;2022-10-15T07:52:45;14.70;99.90
15906;DHT22;8051;50.820;4.884;2022-10-15T07:55:12;14.80;99.90
15906;DHT22;8051;50.820;4.884;2022-10-15T07:57:39;14.80;99.90
15906;DHT22;8051;50.820;4.884;2022-10-15T08:00:11;14.80;99.90
15906;DHT22;8051;50.820;4.884;2022-10-15T08:02:38;14.90;99.90
15906;DHT22;8051;50.820;4.884;2022-10-15T08:05:06;14.90;99.90
15906;DHT22;8051;50.820;4.884;2022-10-15T08:07:33;14.90;99.90
15906;DHT22;8051;50.820;4.884;2022-10-15T08:10:00;14.90;99.90
15906;DHT22;8051;50.820;4.884;2022-10-15T08:12:27;14.90;99.90
15906;DHT22;8051;50.820;4.884;2022-10-15T08:14:54;14.90;99.90
15906;DHT22;8051;50.820;4.884;2022-10-15T08:17:23;14.90;99.90
15906;DHT22;8051;50.820;4.884;2022-10-15T08:19:50;15.00;99.90
15906;DHT22;8051;50.820;4.884;2022-10-15T08:22:19;15.00;99.90
15906;DHT22;8051;50.820;4.884;2022-10-15T08:24:46;15.00;99.90
15906;DHT22;8051;50.820;4.884;2022-10-15T08:27:13;15.10;99.90
15906;DHT22;8051;50.820;4.884;2022-10-15T08:29:40;15.20;99.90
15906;DHT22;8051;50.820;4.884;2022-10-15T08:32:07;15.30;99.90
15906;DHT22;8051;50.820;4.884;2022-10-15T08:34:35;15.50;99.90
15906;DHT22;8051;50.820;4.884;2022-10-15T08:37:02;15.60;99.90
15906;DHT22;8051;50.820;4.884;2022-10-15T08:39:29;15.80;99.90
15906;DHT22;8051;50.820;4.884;2022-10-15T08:41:58;16.00;99.90
15906;DHT22;8051;50.820;4.884;2022-10-15T08:44:28;16.30;99.90
15906;DHT22;8051;50.820;4.884;2022-10-15T08:46:58;16.50;99.90
15906;DHT22;8051;50.820;4.884;2022-10-15T08:49:34;16.70;99.90
15906;DHT22;8051;50.820;4.884;2022-10-15T08:52:17;16.90;99.90
15906;DHT22;8051;50.820;4.884;2022-10-15T08:54:46;16.80;99.90
15906;DHT22;8051;50.820;4.884;2022-10-15T08:57:20;16.80;99.90
15906;DHT22;8051;50.820;4.884;2022-10-15T08:59:54;17.00;99.90
15906;DHT22;8051;50.820;4.884;2022-10-15T09:02:27;17.00;99.90
15906;DHT22;8051;50.820;4.884;2022-10-15T09:05:02;16.90;99.90
15906;DHT22;8051;50.820;4.884;2022-10-15T09:07:43;16.90;99.90
15906;DHT22;8051;50.820;4.884;2022-10-15T09:10:16;16.90;99.90
15906;DHT22;8051;50.820;4.884;2022-10-15T09:12:49;17.00;99.90
15906;DHT22;8051;50.820;4.884;2022-10-15T09:15:19;17.20;99.90
15906;DHT22;8051;50.820;4.884;2022-10-15T09:17:51;17.30;99.90
15906;DHT22;8051;50.820;4.884;2022-10-15T09:20:22;17.30;99.90
15906;DHT22;8051;50.820;4.884;2022-10-15T09:22:51;17.30;99.90
15906;DHT22;8051;50.820;4.884;2022-10-15T09:25:20;17.30;99.90
15906;DHT22;8051;50.820;4.884;2022-10-15T09:27:49;17.30;99.90
15906;DHT22;8051;50.820;4.884;2022-10-15T09:30:30;17.20;99.90
15906;DHT22;8051;50.820;4.884;2022-10-15T09:33:03;17.00;99.90
15906;DHT22;8051;50.820;4.884;2022-10-15T09:35:36;16.80;99.90
15906;DHT22;8051;50.820;4.884;2022-10-15T09:38:15;16.50;99.90
15906;DHT22;8051;50.820;4.884;2022-10-15T09:40:58;16.60;99.90
15906;DHT22;8051;50.820;4.884;2022-10-15T09:43:30;16.60;99.90
15906;DHT22;8051;50.820;4.884;2022-10-15T09:46:00;16.60;99.90
15906;DHT22;8051;50.820;4.884;2022-10-15T09:48:31;16.70;99.90
15906;DHT22;8051;50.820;4.884;2022-10-15T09:51:03;16.70;99.90
15906;DHT22;8051;50.820;4.884;2022-10-15T09:53:40;16.80;99.90
15906;DHT22;8051;50.820;4.884;2022-10-15T09:56:15;16.90;99.90
15906;DHT22;8051;50.820;4.884;2022-10-15T09:58:49;17.30;99.90
15906;DHT22;8051;50.820;4.884;2022-10-15T10:01:18;17.60;99.90
15906;DHT22;8051;50.820;4.884;2022-10-15T10:03:49;17.70;99.90
15906;DHT22;8051;50.820;4.884;2022-10-15T10:06:16;17.80;99.90
15906;DHT22;8051;50.820;4.884;2022-10-15T10:08:50;17.90;99.90
15906;DHT22;8051;50.820;4.884;2022-10-15T10:11:18;17.90;99.90
15906;DHT22;8051;50.820;4.884;2022-10-15T10:13:50;17.90;99.90
15906;DHT22;8051;50.820;4.884;2022-10-15T10:16:18;17.90;99.90
15906;DHT22;8051;50.820;4.884;2022-10-15T10:19:03;17.90;99.90
15906;DHT22;8051;50.820;4.884;2022-10-15T10:21:32;17.70;99.90
15906;DHT22;8051;50.820;4.884;2022-10-15T10:24:23;17.50;99.90
15906;DHT22;8051;50.820;4.884;2022-10-15T10:26:53;17.30;99.90
15906;DHT22;8051;50.820;4.884;2022-10-15T10:29:21;17.20;99.90
15906;DHT22;8051;50.820;4.884;2022-10-15T10:31:49;17.20;99.90
15906;DHT22;8051;50.820;4.884;2022-10-15T10:34:20;17.20;99.90
15906;DHT22;8051;50.820;4.884;2022-10-15T10:36:52;17.20;99.90
15906;DHT22;8051;50.820;4.884;2022-10-15T10:39:26;17.20;99.90
15906;DHT22;8051;50.820;4.884;2022-10-15T10:41:55;17.20;99.90
15906;DHT22;8051;50.820;4.884;2022-10-15T10:44:27;17.30;99.90
15906;DHT22;8051;50.820;4.884;2022-10-15T10:47:11;17.30;99.90
15906;DHT22;8051;50.820;4.884;2022-10-15T10:49:40;17.40;99.90
15906;DHT22;8051;50.820;4.884;2022-10-15T10:52:19;17.50;99.90
15906;DHT22;8051;50.820;4.884;2022-10-15T10:55:00;17.60;99.90
15906;DHT22;8051;50.820;4.884;2022-10-15T10:57:39;17.80;99.90
15906;DHT22;8051;50.820;4.884;2022-10-15T11:00:10;17.90;99.90
15906;DHT22;8051;50.820;4.884;2022-10-15T11:02:37;18.00;99.90
15906;DHT22;8051;50.820;4.884;2022-10-15T11:05:08;18.10;99.90
15906;DHT22;8051;50.820;4.884;2022-10-15T11:07:40;18.20;99.90
15906;DHT22;8051;50.820;4.884;2022-10-15T11:10:19;18.20;99.90
15906;DHT22;8051;50.820;4.884;2022-10-15T11:13:00;18.10;99.90
15906;DHT22;8051;50.820;4.884;2022-10-15T11:15:44;18.20;99.90
15906;DHT22;8051;50.820;4.884;2022-10-15T11:18:38;18.20;99.90
15906;DHT22;8051;50.820;4.884;2022-10-15T11:21:16;18.30;99.90
15906;DHT22;8051;50.820;4.884;2022-10-15T11:24:07;18.60;99.90
15906;DHT22;8051;50.820;4.884;2022-10-15T11:26:47;18.80;99.90
15906;DHT22;8051;50.820;4.884;2022-10-15T11:29:24;19.10;99.90
15906;DHT22;8051;50.820;4.884;2022-10-15T11:31:57;19.30;99.90
15906;DHT22;8051;50.820;4.884;2022-10-15T11:34:40;19.50;99.90
15906;DHT22;8051;50.820;4.884;2022-10-15T11:37:20;19.80;99.90
15906;DHT22;8051;50.820;4.884;2022-10-15T11:40:00;19.80;99.90
15906;DHT22;8051;50.820;4.884;2022-10-15T11:42:36;20.00;99.90
15906;DHT22;8051;50.820;4.884;2022-10-15T11:45:27;20.10;99.90
15906;DHT22;8051;50.820;4.884;2022-10-15T11:48:05;19.80;99.90
15906;DHT22;8051;50.820;4.884;2022-10-15T11:50:40;19.70;99.90
15906;DHT22;8051;50.820;4.884;2022-10-15T11:53:30;19.60;99.90
15906;DHT22;8051;50.820;4.884;2022-10-15T11:56:01;19.40;99.90
15906;DHT22;8051;50.820;4.884;2022-10-15T11:58:35;18.70;99.90
15906;DHT22;8051;50.820;4.884;2022-10-15T12:01:06;17.80;99.90
15906;DHT22;8051;50.820;4.884;2022-10-15T12:03:41;17.30;99.90
15906;DHT22;8051;50.820;4.884;2022-10-15T12:06:13;17.20;99.90
15906;DHT22;8051;50.820;4.884;2022-10-15T12:08:42;17.10;99.90
15906;DHT22;8051;50.820;4.884;2022-10-15T12:11:21;17.00;99.90
15906;DHT22;8051;50.820;4.884;2022-10-15T12:13:55;17.00;99.90
15906;DHT22;8051;50.820;4.884;2022-10-15T12:16:28;16.90;99.90
15906;DHT22;8051;50.820;4.884;2022-10-15T12:19:08;17.00;99.90
15906;DHT22;8051;50.820;4.884;2022-10-15T12:21:38;16.70;99.90
15906;DHT22;8051;50.820;4.884;2022-10-15T12:27:15;16.10;99.90
15906;DHT22;8051;50.820;4.884;2022-10-15T12:29:49;15.90;99.90
15906;DHT22;8051;50.820;4.884;2022-10-15T12:32:22;15.80;99.90
15906;DHT22;8051;50.820;4.884;2022-10-15T12:34:54;15.90;99.90
15906;DHT22;8051;50.820;4.884;2022-10-15T12:37:23;16.10;99.90
15906;DHT22;8051;50.820;4.884;2022-10-15T12:39:55;16.20;99.90
15906;DHT22;8051;50.820;4.884;2022-10-15T12:42:26;16.20;99.90
15906;DHT22;8051;50.820;4.884;2022-10-15T12:44:57;16.40;99.90
15906;DHT22;8051;50.820;4.884;2022-10-15T12:47:48;16.60;99.90
15906;DHT22;8051;50.820;4.884;2022-10-15T12:50:18;16.80;99.90
15906;DHT22;8051;50.820;4.884;2022-10-15T12:52:57;17.00;99.90
15906;DHT22;8051;50.820;4.884;2022-10-15T12:55:28;17.30;99.90
15906;DHT22;8051;50.820;4.884;2022-10-15T12:57:58;17.60;99.90
15906;DHT22;8051;50.820;4.884;2022-10-15T13:00:41;17.80;99.90
15906;DHT22;8051;50.820;4.884;2022-10-15T13:03:33;17.90;99.90
15906;DHT22;8051;50.820;4.884;2022-10-15T13:06:24;18.00;99.90
15906;DHT22;8051;50.820;4.884;2022-10-15T13:08:54;18.20;99.90
15906;DHT22;8051;50.820;4.884;2022-10-15T13:11:24;18.30;99.90
15906;DHT22;8051;50.820;4.884;2022-10-15T13:13:58;18.20;99.90
15906;DHT22;8051;50.820;4.884;2022-10-15T13:16:28;18.10;99.90
15906;DHT22;8051;50.820;4.884;2022-10-15T13:18:55;18.00;99.90
15906;DHT22;8051;50.820;4.884;2022-10-15T13:21:49;18.00;99.90
15906;DHT22;8051;50.820;4.884;2022-10-15T13:24:18;18.30;99.90
15906;DHT22;8051;50.820;4.884;2022-10-15T13:26:45;18.30;99.90
15906;DHT22;8051;50.820;4.884;2022-10-15T13:29:15;18.20;99.90
15906;DHT22;8051;50.820;4.884;2022-10-15T13:31:42;18.00;99.90
15906;DHT22;8051;50.820;4.884;2022-10-15T13:34:19;17.90;99.90
15906;DHT22;8051;50.820;4.884;2022-10-15T13:36:49;17.80;99.90
15906;DHT22;8051;50.820;4.884;2022-10-15T13:39:23;17.70;99.90
15906;DHT22;8051;50.820;4.884;2022-10-15T13:41:55;17.60;99.90
15906;DHT22;8051;50.820;4.884;2022-10-15T13:44:30;17.50;99.90
15906;DHT22;8051;50.820;4.884;2022-10-15T13:46:56;17.30;99.90
15906;DHT22;8051;50.820;4.884;2022-10-15T13:49:23;17.30;99.90
15906;DHT22;8051;50.820;4.884;2022-10-15T13:51:52;17.20;99.90
15906;DHT22;8051;50.820;4.884;2022-10-15T13:54:22;17.30;99.90
15906;DHT22;8051;50.820;4.884;2022-10-15T13:56:52;17.30;99.90
15906;DHT22;8051;50.820;4.884;2022-10-15T13:59:20;17.40;99.90
15906;DHT22;8051;50.820;4.884;2022-10-15T14:01:50;17.40;99.90
15906;DHT22;8051;50.820;4.884;2022-10-15T14:04:20;17.40;99.90
15906;DHT22;8051;50.820;4.884;2022-10-15T14:06:56;17.40;99.90
15906;DHT22;8051;50.820;4.884;2022-10-15T14:09:28;17.60;99.90
15906;DHT22;8051;50.820;4.884;2022-10-15T14:11:57;17.80;99.90
15906;DHT22;8051;50.820;4.884;2022-10-15T14:14:30;17.90;99.90
15906;DHT22;8051;50.820;4.884;2022-10-15T14:16:58;17.90;99.90
15906;DHT22;8051;50.820;4.884;2022-10-15T14:19:26;17.90;99.90
15906;DHT22;8051;50.820;4.884;2022-10-15T14:21:57;17.80;99.90
15906;DHT22;8051;50.820;4.884;2022-10-15T14:24:28;17.80;99.90
15906;DHT22;8051;50.820;4.884;2022-10-15T14:27:01;17.80;99.90
15906;DHT22;8051;50.820;4.884;2022-10-15T14:29:38;17.80;99.90
15906;DHT22;8051;50.820;4.884;2022-10-15T14:32:23;18.00;99.90
15906;DHT22;8051;50.820;4.884;2022-10-15T14:34:51;18.00;99.90
15906;DHT22;8051;50.820;4.884;2022-10-15T14:37:31;17.90;99.90
15906;DHT22;8051;50.820;4.884;2022-10-15T14:40:13;17.90;99.90
15906;DHT22;8051;50.820;4.884;2022-10-15T14:42:43;17.90;99.90
15906;DHT22;8051;50.820;4.884;2022-10-15T14:45:11;17.90;99.90
15906;DHT22;8051;50.820;4.884;2022-10-15T14:47:39;17.80;99.90
15906;DHT22;8051;50.820;4.884;2022-10-15T14:50:09;17.80;99.90
15906;DHT22;8051;50.820;4.884;2022-10-15T14:52:43;17.80;99.90
15906;DHT22;8051;50.820;4.884;2022-10-15T14:55:14;17.90;99.90
15906;DHT22;8051;50.820;4.884;2022-10-15T14:57:44;18.00;99.90
15906;DHT22;8051;50.820;4.884;2022-10-15T15:00:16;18.10;99.90
15906;DHT22;8051;50.820;4.884;2022-10-15T15:02:46;18.20;99.90
15906;DHT22;8051;50.820;4.884;2022-10-15T15:05:20;18.20;99.90
15906;DHT22;8051;50.820;4.884;2022-10-15T15:07:49;18.20;99.90
15906;DHT22;8051;50.820;4.884;2022-10-15T15:10:17;18.20;99.90
15906;DHT22;8051;50.820;4.884;2022-10-15T15:12:48;18.30;99.90
15906;DHT22;8051;50.820;4.884;2022-10-15T15:15:17;18.30;99.90
15906;DHT22;8051;50.820;4.884;2022-10-15T15:17:44;18.50;99.90
15906;DHT22;8051;50.820;4.884;2022-10-15T15:20:13;18.50;99.90
15906;DHT22;8051;50.820;4.884;2022-10-15T15:22:41;18.30;99.90
15906;DHT22;8051;50.820;4.884;2022-10-15T15:25:14;18.20;99.90
15906;DHT22;8051;50.820;4.884;2022-10-15T15:27:42;18.00;99.90
15906;DHT22;8051;50.820;4.884;2022-10-15T15:30:14;17.90;99.90
15906;DHT22;8051;50.820;4.884;2022-10-15T15:32:41;17.70;99.90
15906;DHT22;8051;50.820;4.884;2022-10-15T15:35:15;17.60;99.90
15906;DHT22;8051;50.820;4.884;2022-10-15T15:37:44;17.60;99.90
15906;DHT22;8051;50.820;4.884;2022-10-15T15:40:13;17.50;99.90
15906;DHT22;8051;50.820;4.884;2022-10-15T15:42:40;17.50;99.90
15906;DHT22;8051;50.820;4.884;2022-10-15T15:45:15;17.40;99.90
15906;DHT22;8051;50.820;4.884;2022-10-15T15:47:43;17.40;99.90
15906;DHT22;8051;50.820;4.884;2022-10-15T15:50:09;17.40;99.90
15906;DHT22;8051;50.820;4.884;2022-10-15T15:52:36;17.30;99.90
15906;DHT22;8051;50.820;4.884;2022-10-15T15:55:04;17.30;99.90
15906;DHT22;8051;50.820;4.884;2022-10-15T15:57:32;17.20;99.90
15906;DHT22;8051;50.820;4.884;2022-10-15T15:59:59;17.10;99.90
15906;DHT22;8051;50.820;4.884;2022-10-15T16:02:26;17.00;99.90
15906;DHT22;8051;50.820;4.884;2022-10-15T16:04:53;16.90;99.90
15906;DHT22;8051;50.820;4.884;2022-10-15T16:07:20;16.80;99.90
15906;DHT22;8051;50.820;4.884;2022-10-15T16:09:47;16.80;99.90
15906;DHT22;8051;50.820;4.884;2022-10-15T16:12:14;16.80;99.90